Time,TemperatureF,DewpointF,PressureIn,WindDirection,WindDirectionDegrees,WindSpeedMPH,WindSpeedGustMPH,Humidity,HourlyPrecipIn,Conditions,Clouds,dailyrainin,SoftwareType,DateUTC
2013-12-25 00:03:00,16.2,13.0,30.52,SE,128,4.0,6.0,86,0.00,,,0.00,weatherlink.com 1.10,2013-12-25 05:03:00,
2013-12-25 00:19:00,16.3,13.0,30.51,ESE,118,5.0,9.0,85,0.00,,,0.00,weatherlink.com 1.10,2013-12-25 05:19:00,
2013-12-25 00:34:00,16.2,13.0,30.52,SE,143,2.0,8.0,85,0.00,,,0.00,weatherlink.com 1.10,2013-12-25 05:34:00,
2013-12-25 01:04:00,16.4,13.0,30.52,ESE,108,3.0,5.0,85,0.00,,,0.00,weatherlink.com 1.10,2013-12-25 06:04:00,
2013-12-25 01:19:00,16.6,13.0,30.51,SE,139,2.0,5.0,85,0.00,,,0.00,weatherlink.com 1.10,2013-12-25 06:19:00,
2013-12-25 01:34:00,16.8,13.0,30.51,SE,129,2.0,7.0,85,0.00,,,0.00,weatherlink.com 1.10,2013-12-25 06:34:00,
2013-12-25 01:49:00,17.2,14.0,30.50,East,91,2.0,7.0,85,0.00,,,0.00,weatherlink.com 1.10,2013-12-25 06:49:00,
2013-12-25 02:04:00,17.5,14.0,30.50,SE,132,3.0,8.0,84,0.00,,,0.00,weatherlink.com 1.10,2013-12-25 07:04:00,
2013-12-25 02:19:00,17.7,14.0,30.48,SE,128,4.0,8.0,84,0.00,,,0.00,weatherlink.com 1.10,2013-12-25 07:19:00,
2013-12-25 02:34:00,17.8,14.0,30.50,SSE,149,4.0,9.0,84,0.00,,,0.00,weatherlink.com 1.10,2013-12-25 07:34:00,
2013-12-25 02:49:00,18.0,14.0,30.49,SE,142,2.0,9.0,83,0.00,,,0.00,weatherlink.com 1.10,2013-12-25 07:49:00,
2013-12-25 03:04:00,18.1,14.0,30.48,ESE,121,8.0,12.0,83,0.00,,,0.00,weatherlink.com 1.10,2013-12-25 08:04:00,
2013-12-25 03:19:00,18.3,14.0,30.48,ESE,120,3.0,10.0,83,0.00,,,0.00,weatherlink.com 1.10,2013-12-25 08:19:00,
2013-12-25 03:34:00,18.3,14.0,30.46,ESE,104,4.0,11.0,83,0.00,,,0.00,weatherlink.com 1.10,2013-12-25 08:34:00,
2013-12-25 03:49:00,18.4,14.0,30.46,ESE,113,3.0,11.0,83,0.00,,,0.00,weatherlink.com 1.10,2013-12-25 08:49:00,
2013-12-25 04:04:00,18.6,14.0,30.47,SE,143,5.0,10.0,83,0.00,,,0.00,weatherlink.com 1.10,2013-12-25 09:04:00,
2013-12-25 04:19:00,18.8,14.0,30.45,South,184,2.0,12.0,82,0.00,,,0.00,weatherlink.com 1.10,2013-12-25 09:19:00,
2013-12-25 04:34:00,18.9,14.0,30.44,SSE,158,5.0,11.0,82,0.00,,,0.00,weatherlink.com 1.10,2013-12-25 09:34:00,
2013-12-25 04:49:00,19.0,14.0,30.43,SE,125,6.0,14.0,81,0.00,,,0.00,weatherlink.com 1.10,2013-12-25 09:49:00,
2013-12-25 05:04:00,19.1,14.0,30.42,SSE,153,6.0,15.0,81,0.00,,,0.00,weatherlink.com 1.10,2013-12-25 10:04:00,
2013-12-25 05:19:00,19.2,14.0,30.42,SSE,152,4.0,13.0,81,0.00,,,0.00,weatherlink.com 1.10,2013-12-25 10:19:00,
2013-12-25 05:34:00,19.4,15.0,30.40,SSE,159,12.0,20.0,81,0.00,,,0.00,weatherlink.com 1.10,2013-12-25 10:34:00,
2013-12-25 05:49:00,19.5,15.0,30.40,SE,126,9.0,14.0,81,0.00,,,0.00,weatherlink.com 1.10,2013-12-25 10:49:00,
2013-12-25 06:04:00,19.7,15.0,30.40,SSE,163,7.0,15.0,81,0.00,,,0.00,weatherlink.com 1.10,2013-12-25 11:04:00,
2013-12-25 06:19:00,19.9,15.0,30.39,East,96,6.0,16.0,80,0.00,,,0.00,weatherlink.com 1.10,2013-12-25 11:19:00,
2013-12-25 06:35:00,20.0,15.0,30.40,ESE,119,5.0,15.0,80,0.00,,,0.00,weatherlink.com 1.10,2013-12-25 11:35:00,
2013-12-25 06:50:00,20.2,15.0,30.40,SE,135,11.0,11.0,80,0.00,,,0.00,weatherlink.com 1.10,2013-12-25 11:50:00,
2013-12-25 07:05:00,20.2,15.0,30.38,SSE,157,4.0,12.0,81,0.00,,,0.00,weatherlink.com 1.10,2013-12-25 12:05:00,
2013-12-25 07:20:00,20.3,15.0,30.38,SSE,152,6.0,17.0,81,0.00,,,0.00,weatherlink.com 1.10,2013-12-25 12:20:00,
2013-12-25 07:35:00,20.5,16.0,30.38,SSE,155,9.0,14.0,81,0.00,,,0.00,weatherlink.com 1.10,2013-12-25 12:35:00,
2013-12-25 07:50:00,20.7,16.0,30.38,SSE,160,7.0,12.0,81,0.00,,,0.00,weatherlink.com 1.10,2013-12-25 12:50:00,
2013-12-25 08:05:00,20.9,16.0,30.39,SSW,212,11.0,13.0,81,0.00,,,0.00,weatherlink.com 1.10,2013-12-25 13:05:00,
2013-12-25 08:20:00,21.1,16.0,30.37,ESE,121,10.0,15.0,80,0.00,,,0.00,weatherlink.com 1.10,2013-12-25 13:20:00,
2013-12-25 08:35:00,21.3,16.0,30.38,SSE,167,5.0,13.0,80,0.00,,,0.00,weatherlink.com 1.10,2013-12-25 13:35:00,
2013-12-25 08:50:00,21.5,16.0,30.38,SE,135,7.0,13.0,80,0.00,,,0.00,weatherlink.com 1.10,2013-12-25 13:50:00,
2013-12-25 09:05:00,21.4,16.0,30.37,SSE,165,6.0,14.0,81,0.00,,,0.00,weatherlink.com 1.10,2013-12-25 14:05:00,
2013-12-25 09:20:00,21.3,17.0,30.38,SE,143,5.0,14.0,83,0.00,,,0.00,weatherlink.com 1.10,2013-12-25 14:20:00,
2013-12-25 09:35:00,21.1,17.0,30.39,SSE,158,9.0,16.0,85,0.00,,,0.00,weatherlink.com 1.10,2013-12-25 14:35:00,
2013-12-25 09:50:00,20.9,18.0,30.38,SE,126,3.0,11.0,88,0.00,,,0.00,weatherlink.com 1.10,2013-12-25 14:50:00,
2013-12-25 10:05:00,21.0,18.0,30.38,South,187,4.0,13.0,89,0.00,,,0.00,weatherlink.com 1.10,2013-12-25 15:05:00,
2013-12-25 10:21:00,21.4,19.0,30.38,SSW,203,6.0,12.0,89,0.00,,,0.00,weatherlink.com 1.10,2013-12-25 15:21:00,
2013-12-25 10:35:00,21.6,19.0,30.37,SSW,194,5.0,10.0,89,0.00,,,0.00,weatherlink.com 1.10,2013-12-25 15:35:00,
2013-12-25 10:50:00,21.8,19.0,30.37,SE,132,5.0,10.0,88,0.00,,,0.00,weatherlink.com 1.10,2013-12-25 15:50:00,
2013-12-25 11:05:00,21.9,19.0,30.36,South,190,8.0,17.0,87,0.00,,,0.00,weatherlink.com 1.10,2013-12-25 16:05:00,
2013-12-25 11:20:00,22.1,19.0,30.36,SSW,201,7.0,12.0,87,0.00,,,0.00,weatherlink.com 1.10,2013-12-25 16:20:00,
2013-12-25 11:35:00,22.4,19.0,30.35,SSW,207,8.0,11.0,86,0.00,,,0.00,weatherlink.com 1.10,2013-12-25 16:35:00,
2013-12-25 11:50:00,22.6,19.0,30.34,South,172,10.0,15.0,86,0.00,,,0.00,weatherlink.com 1.10,2013-12-25 16:50:00,
2013-12-25 12:05:00,22.9,19.0,30.33,SSW,200,6.0,15.0,84,0.00,,,0.00,weatherlink.com 1.10,2013-12-25 17:05:00,
2013-12-25 12:20:00,23.2,19.0,30.32,SSE,148,8.0,13.0,84,0.00,,,0.00,weatherlink.com 1.10,2013-12-25 17:20:00,
2013-12-25 12:35:00,23.5,19.0,30.32,SSW,200,3.0,18.0,83,0.00,,,0.00,weatherlink.com 1.10,2013-12-25 17:35:00,
2013-12-25 12:50:00,23.8,19.0,30.30,SSW,208,8.0,14.0,82,0.00,,,0.00,weatherlink.com 1.10,2013-12-25 17:50:00,
2013-12-25 13:05:00,24.0,19.0,30.30,South,187,9.0,14.0,81,0.00,,,0.00,weatherlink.com 1.10,2013-12-25 18:05:00,
2013-12-25 13:20:00,24.2,19.0,30.29,SW,214,11.0,14.0,80,0.00,,,0.00,weatherlink.com 1.10,2013-12-25 18:20:00,
2013-12-25 13:50:00,24.5,19.0,30.28,WSW,238,8.0,16.0,80,0.00,,,0.00,weatherlink.com 1.10,2013-12-25 18:50:00,
2013-12-25 14:05:00,24.7,19.0,30.28,WSW,239,8.0,13.0,80,0.00,,,0.00,weatherlink.com 1.10,2013-12-25 19:05:00,
2013-12-25 14:20:00,24.8,19.0,30.28,SSW,193,5.0,12.0,80,0.00,,,0.00,weatherlink.com 1.10,2013-12-25 19:20:00,
2013-12-25 14:36:00,24.8,19.0,30.27,SSW,202,11.0,12.0,80,0.00,,,0.00,weatherlink.com 1.10,2013-12-25 19:36:00,
2013-12-25 14:51:00,24.9,20.0,30.27,SW,222,5.0,11.0,80,0.00,,,0.00,weatherlink.com 1.10,2013-12-25 19:51:00,
2013-12-25 15:06:00,25.0,20.0,30.27,SSW,200,4.0,12.0,80,0.00,,,0.00,weatherlink.com 1.10,2013-12-25 20:06:00,
2013-12-25 15:21:00,25.1,20.0,30.26,SW,215,11.0,11.0,81,0.00,,,0.00,weatherlink.com 1.10,2013-12-25 20:21:00,
2013-12-25 15:36:00,25.0,20.0,30.26,SSW,210,6.0,15.0,81,0.00,,,0.00,weatherlink.com 1.10,2013-12-25 20:36:00,
2013-12-25 15:51:00,25.1,20.0,30.27,SW,231,6.0,13.0,82,0.00,,,0.00,weatherlink.com 1.10,2013-12-25 20:51:00,
2013-12-25 16:06:00,25.1,20.0,30.26,SSW,205,5.0,11.0,82,0.00,,,0.00,weatherlink.com 1.10,2013-12-25 21:06:00,
2013-12-25 16:21:00,25.1,21.0,30.26,South,191,4.0,7.0,83,0.00,,,0.00,weatherlink.com 1.10,2013-12-25 21:21:00,
2013-12-25 16:36:00,25.1,21.0,30.26,SSW,208,4.0,9.0,83,0.00,,,0.00,weatherlink.com 1.10,2013-12-25 21:36:00,
2013-12-25 16:51:00,25.1,21.0,30.26,South,188,4.0,9.0,84,0.00,,,0.00,weatherlink.com 1.10,2013-12-25 21:51:00,
2013-12-25 17:06:00,25.0,21.0,30.26,SSW,211,4.0,8.0,84,0.00,,,0.00,weatherlink.com 1.10,2013-12-25 22:06:00,
2013-12-25 17:21:00,25.0,21.0,30.26,South,174,3.0,6.0,85,0.00,,,0.00,weatherlink.com 1.10,2013-12-25 22:21:00,
2013-12-25 17:36:00,25.0,21.0,30.26,SSW,194,6.0,7.0,85,0.00,,,0.00,weatherlink.com 1.10,2013-12-25 22:36:00,
2013-12-25 17:51:00,24.9,21.0,30.25,South,190,2.0,6.0,85,0.00,,,0.00,weatherlink.com 1.10,2013-12-25 22:51:00,
2013-12-25 18:06:00,24.9,21.0,30.25,SSE,160,4.0,6.0,85,0.00,,,0.00,weatherlink.com 1.10,2013-12-25 23:06:00,
2013-12-25 18:21:00,25.0,21.0,30.25,SSE,166,3.0,6.0,85,0.00,,,0.00,weatherlink.com 1.10,2013-12-25 23:21:00,
2013-12-25 18:36:00,25.1,21.0,30.25,SE,141,5.0,7.0,85,0.00,,,0.00,weatherlink.com 1.10,2013-12-25 23:36:00,
2013-12-25 18:51:00,25.1,21.0,30.25,South,188,4.0,9.0,85,0.00,,,0.00,weatherlink.com 1.10,2013-12-25 23:51:00,
2013-12-25 19:06:00,25.2,21.0,30.24,SSE,152,5.0,8.0,85,0.00,,,0.00,weatherlink.com 1.10,2013-12-26 00:06:00,
2013-12-25 19:21:00,25.3,21.0,30.24,South,181,3.0,7.0,85,0.00,,,0.00,weatherlink.com 1.10,2013-12-26 00:21:00,
2013-12-25 19:36:00,25.4,22.0,30.24,SSW,207,5.0,10.0,85,0.00,,,0.00,weatherlink.com 1.10,2013-12-26 00:36:00,
2013-12-25 19:50:00,25.3,22.0,30.23,SSW,194,7.0,10.0,86,0.00,,,0.00,weatherlink.com 1.10,2013-12-26 00:50:00,
2013-12-25 20:21:00,25.4,22.0,30.23,SW,217,11.0,11.0,87,0.00,,,0.00,weatherlink.com 1.10,2013-12-26 01:21:00,
2013-12-25 20:36:00,25.4,22.0,30.23,SE,140,4.0,13.0,87,0.00,,,0.00,weatherlink.com 1.10,2013-12-26 01:36:00,
2013-12-25 20:51:00,25.4,22.0,30.23,SSW,210,5.0,10.0,87,0.00,,,0.00,weatherlink.com 1.10,2013-12-26 01:51:00,
2013-12-25 21:06:00,25.4,22.0,30.22,SSW,200,5.0,10.0,87,0.00,,,0.00,weatherlink.com 1.10,2013-12-26 02:06:00,
2013-12-25 21:21:00,25.4,22.0,30.22,South,169,4.0,12.0,88,0.00,,,0.00,weatherlink.com 1.10,2013-12-26 02:21:00,
2013-12-25 21:36:00,25.3,23.0,30.22,SSW,193,7.0,13.0,90,0.00,,,0.00,weatherlink.com 1.10,2013-12-26 02:36:00,
2013-12-25 21:51:00,25.3,23.0,30.21,SSE,152,7.0,10.0,91,0.00,,,0.00,weatherlink.com 1.10,2013-12-26 02:51:00,
2013-12-25 22:06:00,25.3,23.0,30.20,SSE,162,5.0,11.0,91,0.00,,,0.00,weatherlink.com 1.10,2013-12-26 03:06:00,
2013-12-25 22:21:00,25.4,23.0,30.20,SSW,211,8.0,12.0,92,0.00,,,0.00,weatherlink.com 1.10,2013-12-26 03:21:00,
2013-12-25 22:36:00,25.4,23.0,30.19,SSW,201,7.0,10.0,92,0.00,,,0.00,weatherlink.com 1.10,2013-12-26 03:36:00,
2013-12-25 22:51:00,25.5,24.0,30.19,SSE,155,7.0,11.0,92,0.00,,,0.00,weatherlink.com 1.10,2013-12-26 03:51:00,
2013-12-25 23:06:00,25.6,24.0,30.18,South,184,6.0,11.0,93,0.00,,,0.00,weatherlink.com 1.10,2013-12-26 04:06:00,
2013-12-25 23:21:00,25.6,24.0,30.18,SSW,194,5.0,10.0,93,0.00,,,0.00,weatherlink.com 1.10,2013-12-26 04:21:00,
2013-12-25 23:36:00,25.7,24.0,30.17,SSW,211,11.0,11.0,93,0.00,,,0.00,weatherlink.com 1.10,2013-12-26 04:36:00,
2013-12-25 23:51:00,25.9,24.0,30.17,SSW,195,4.0,10.0,93,0.00,,,0.00,weatherlink.com 1.10,2013-12-26 04:51:00,